sensor_id;sensor_type;location;lat;lon;timestamp;P1;durP1;ratioP1;P2;durP2;ratioP2
77724;SDS011;66892;53.236;6.550;2023-04-09T00:00:00;7.55;;;6.85;;
77724;SDS011;66892;53.236;6.550;2023-04-09T00:02:26;6.47;;;5.88;;
77724;SDS011;66892;53.236;6.550;2023-04-09T00:04:53;7.07;;;6.32;;
77724;SDS011;66892;53.236;6.550;2023-04-09T00:07:19;6.80;;;6.18;;
77724;SDS011;66892;53.236;6.550;2023-04-09T00:09:45;7.32;;;6.63;;
77724;SDS011;66892;53.236;6.550;2023-04-09T00:12:11;7.50;;;6.80;;
77724;SDS011;66892;53.236;6.550;2023-04-09T00:14:37;7.32;;;6.63;;
77724;SDS011;66892;53.236;6.550;2023-04-09T00:17:03;7.47;;;6.78;;
77724;SDS011;66892;53.236;6.550;2023-04-09T00:19:29;7.00;;;6.30;;
77724;SDS011;66892;53.236;6.550;2023-04-09T00:21:57;7.22;;;6.57;;
77724;SDS011;66892;53.236;6.550;2023-04-09T00:24:23;6.50;;;5.90;;
77724;SDS011;66892;53.236;6.550;2023-04-09T00:26:49;6.45;;;5.85;;
77724;SDS011;66892;53.236;6.550;2023-04-09T00:29:15;6.70;;;6.10;;
77724;SDS011;66892;53.236;6.550;2023-04-09T00:31:41;6.75;;;6.15;;
77724;SDS011;66892;53.236;6.550;2023-04-09T00:34:07;6.30;;;5.70;;
77724;SDS011;66892;53.236;6.550;2023-04-09T00:36:33;6.15;;;5.65;;
77724;SDS011;66892;53.236;6.550;2023-04-09T00:39:00;6.60;;;6.00;;
77724;SDS011;66892;53.236;6.550;2023-04-09T00:41:26;6.35;;;5.75;;
77724;SDS011;66892;53.236;6.550;2023-04-09T00:43:54;5.95;;;5.40;;
77724;SDS011;66892;53.236;6.550;2023-04-09T00:46:20;6.18;;;5.55;;
77724;SDS011;66892;53.236;6.550;2023-04-09T00:48:46;6.20;;;5.60;;
77724;SDS011;66892;53.236;6.550;2023-04-09T00:51:12;6.63;;;6.03;;
77724;SDS011;66892;53.236;6.550;2023-04-09T00:53:38;6.40;;;5.80;;
77724;SDS011;66892;53.236;6.550;2023-04-09T00:56:06;6.40;;;5.80;;
77724;SDS011;66892;53.236;6.550;2023-04-09T00:58:33;6.60;;;6.00;;
77724;SDS011;66892;53.236;6.550;2023-04-09T01:00:59;5.75;;;5.15;;
77724;SDS011;66892;53.236;6.550;2023-04-09T01:03:25;5.72;;;5.22;;
77724;SDS011;66892;53.236;6.550;2023-04-09T01:05:53;5.47;;;4.97;;
77724;SDS011;66892;53.236;6.550;2023-04-09T01:08:30;4.95;;;4.45;;
77724;SDS011;66892;53.236;6.550;2023-04-09T01:11:05;5.13;;;4.60;;
77724;SDS011;66892;53.236;6.550;2023-04-09T01:13:41;4.65;;;4.18;;
77724;SDS011;66892;53.236;6.550;2023-04-09T01:16:14;4.80;;;4.30;;
77724;SDS011;66892;53.236;6.550;2023-04-09T01:18:41;4.25;;;3.45;;
77724;SDS011;66892;53.236;6.550;2023-04-09T01:21:11;4.40;;;3.65;;
77724;SDS011;66892;53.236;6.550;2023-04-09T01:23:42;4.65;;;3.60;;
77724;SDS011;66892;53.236;6.550;2023-04-09T01:26:15;7.13;;;4.47;;
77724;SDS011;66892;53.236;6.550;2023-04-09T01:29:01;4.20;;;3.50;;
77724;SDS011;66892;53.236;6.550;2023-04-09T01:31:30;4.93;;;3.88;;
77724;SDS011;66892;53.236;6.550;2023-04-09T01:33:59;4.43;;;3.67;;
77724;SDS011;66892;53.236;6.550;2023-04-09T01:36:25;4.50;;;3.75;;
77724;SDS011;66892;53.236;6.550;2023-04-09T01:38:53;4.20;;;3.60;;
77724;SDS011;66892;53.236;6.550;2023-04-09T01:41:21;4.10;;;3.25;;
77724;SDS011;66892;53.236;6.550;2023-04-09T01:43:49;4.20;;;3.55;;
77724;SDS011;66892;53.236;6.550;2023-04-09T01:46:17;3.92;;;3.28;;
77724;SDS011;66892;53.236;6.550;2023-04-09T01:48:45;3.97;;;3.58;;
77724;SDS011;66892;53.236;6.550;2023-04-09T01:51:12;4.20;;;3.30;;
77724;SDS011;66892;53.236;6.550;2023-04-09T01:53:38;4.43;;;3.38;;
77724;SDS011;66892;53.236;6.550;2023-04-09T01:56:05;4.60;;;3.72;;
77724;SDS011;66892;53.236;6.550;2023-04-09T01:58:32;4.82;;;3.30;;
77724;SDS011;66892;53.236;6.550;2023-04-09T02:01:04;4.13;;;3.45;;
77724;SDS011;66892;53.236;6.550;2023-04-09T02:03:36;4.55;;;3.70;;
77724;SDS011;66892;53.236;6.550;2023-04-09T02:06:06;4.18;;;3.40;;
77724;SDS011;66892;53.236;6.550;2023-04-09T02:08:36;4.13;;;3.38;;
77724;SDS011;66892;53.236;6.550;2023-04-09T02:11:03;4.07;;;3.22;;
77724;SDS011;66892;53.236;6.550;2023-04-09T02:13:30;4.40;;;3.35;;
77724;SDS011;66892;53.236;6.550;2023-04-09T02:15:57;4.00;;;3.30;;
77724;SDS011;66892;53.236;6.550;2023-04-09T02:18:25;4.20;;;3.42;;
77724;SDS011;66892;53.236;6.550;2023-04-09T02:20:54;4.10;;;3.28;;
77724;SDS011;66892;53.236;6.550;2023-04-09T02:23:21;3.63;;;2.58;;
77724;SDS011;66892;53.236;6.550;2023-04-09T02:25:47;4.20;;;3.05;;
77724;SDS011;66892;53.236;6.550;2023-04-09T02:28:14;4.18;;;3.08;;
77724;SDS011;66892;53.236;6.550;2023-04-09T02:30:40;4.05;;;3.20;;
77724;SDS011;66892;53.236;6.550;2023-04-09T02:33:06;4.18;;;2.92;;
77724;SDS011;66892;53.236;6.550;2023-04-09T02:35:32;3.80;;;3.22;;
77724;SDS011;66892;53.236;6.550;2023-04-09T02:38:00;3.85;;;3.10;;
77724;SDS011;66892;53.236;6.550;2023-04-09T02:40:26;3.90;;;3.00;;
77724;SDS011;66892;53.236;6.550;2023-04-09T02:42:53;4.13;;;3.63;;
77724;SDS011;66892;53.236;6.550;2023-04-09T02:45:19;3.92;;;3.08;;
77724;SDS011;66892;53.236;6.550;2023-04-09T02:47:45;4.20;;;3.45;;
77724;SDS011;66892;53.236;6.550;2023-04-09T02:50:11;4.57;;;3.30;;
77724;SDS011;66892;53.236;6.550;2023-04-09T02:52:37;4.30;;;3.25;;
77724;SDS011;66892;53.236;6.550;2023-04-09T02:55:05;4.10;;;3.15;;
77724;SDS011;66892;53.236;6.550;2023-04-09T02:57:32;4.10;;;3.15;;
77724;SDS011;66892;53.236;6.550;2023-04-09T02:59:58;4.20;;;3.53;;
77724;SDS011;66892;53.236;6.550;2023-04-09T03:02:24;4.13;;;2.88;;
77724;SDS011;66892;53.236;6.550;2023-04-09T03:04:50;4.30;;;3.20;;
77724;SDS011;66892;53.236;6.550;2023-04-09T03:07:17;4.22;;;3.25;;
77724;SDS011;66892;53.236;6.550;2023-04-09T03:09:43;3.90;;;2.97;;
77724;SDS011;66892;53.236;6.550;2023-04-09T03:12:11;4.00;;;3.20;;
77724;SDS011;66892;53.236;6.550;2023-04-09T03:14:37;4.03;;;3.25;;
77724;SDS011;66892;53.236;6.550;2023-04-09T03:17:03;4.22;;;3.63;;
77724;SDS011;66892;53.236;6.550;2023-04-09T03:19:29;4.65;;;3.55;;
77724;SDS011;66892;53.236;6.550;2023-04-09T03:21:55;4.20;;;3.38;;
77724;SDS011;66892;53.236;6.550;2023-04-09T03:24:21;4.07;;;3.47;;
77724;SDS011;66892;53.236;6.550;2023-04-09T03:26:47;4.32;;;3.28;;
77724;SDS011;66892;53.236;6.550;2023-04-09T03:29:14;4.68;;;3.53;;
77724;SDS011;66892;53.236;6.550;2023-04-09T03:31:40;4.30;;;3.45;;
77724;SDS011;66892;53.236;6.550;2023-04-09T03:34:06;4.22;;;3.55;;
77724;SDS011;66892;53.236;6.550;2023-04-09T03:36:32;4.30;;;3.40;;
77724;SDS011;66892;53.236;6.550;2023-04-09T03:38:59;4.15;;;3.50;;
77724;SDS011;66892;53.236;6.550;2023-04-09T03:41:25;4.22;;;3.50;;
77724;SDS011;66892;53.236;6.550;2023-04-09T03:43:52;4.72;;;3.65;;
77724;SDS011;66892;53.236;6.550;2023-04-09T03:46:19;4.07;;;3.47;;
77724;SDS011;66892;53.236;6.550;2023-04-09T03:48:45;4.60;;;3.65;;
77724;SDS011;66892;53.236;6.550;2023-04-09T03:51:12;4.68;;;3.65;;
77724;SDS011;66892;53.236;6.550;2023-04-09T03:53:38;4.00;;;3.40;;
77724;SDS011;66892;53.236;6.550;2023-04-09T03:56:05;4.00;;;3.33;;
77724;SDS011;66892;53.236;6.550;2023-04-09T03:58:31;4.40;;;3.97;;
77724;SDS011;66892;53.236;6.550;2023-04-09T04:00:57;4.32;;;3.63;;
77724;SDS011;66892;53.236;6.550;2023-04-09T04:03:24;4.78;;;4.07;;
77724;SDS011;66892;53.236;6.550;2023-04-09T04:05:50;4.63;;;3.80;;
77724;SDS011;66892;53.236;6.550;2023-04-09T04:08:16;4.30;;;3.63;;
77724;SDS011;66892;53.236;6.550;2023-04-09T04:10:43;4.57;;;3.85;;
77724;SDS011;66892;53.236;6.550;2023-04-09T04:13:09;4.30;;;3.70;;
77724;SDS011;66892;53.236;6.550;2023-04-09T04:15:38;4.40;;;3.75;;
77724;SDS011;66892;53.236;6.550;2023-04-09T04:18:04;4.50;;;3.70;;
77724;SDS011;66892;53.236;6.550;2023-04-09T04:20:32;4.70;;;3.67;;
77724;SDS011;66892;53.236;6.550;2023-04-09T04:22:58;4.40;;;3.47;;
77724;SDS011;66892;53.236;6.550;2023-04-09T04:25:24;4.40;;;3.75;;
77724;SDS011;66892;53.236;6.550;2023-04-09T04:27:51;4.90;;;3.75;;
77724;SDS011;66892;53.236;6.550;2023-04-09T04:30:17;4.57;;;3.63;;
77724;SDS011;66892;53.236;6.550;2023-04-09T04:32:43;4.28;;;3.63;;
77724;SDS011;66892;53.236;6.550;2023-04-09T04:35:09;4.93;;;3.78;;
77724;SDS011;66892;53.236;6.550;2023-04-09T04:37:36;4.63;;;3.95;;
77724;SDS011;66892;53.236;6.550;2023-04-09T04:40:02;4.03;;;3.28;;
77724;SDS011;66892;53.236;6.550;2023-04-09T04:42:30;4.57;;;3.92;;
77724;SDS011;66892;53.236;6.550;2023-04-09T04:44:56;4.28;;;3.53;;
77724;SDS011;66892;53.236;6.550;2023-04-09T04:47:22;4.85;;;3.80;;
77724;SDS011;66892;53.236;6.550;2023-04-09T04:49:48;4.20;;;3.55;;
77724;SDS011;66892;53.236;6.550;2023-04-09T04:52:14;4.57;;;3.80;;
77724;SDS011;66892;53.236;6.550;2023-04-09T04:54:41;4.10;;;3.30;;
77724;SDS011;66892;53.236;6.550;2023-04-09T04:57:07;5.72;;;4.05;;
77724;SDS011;66892;53.236;6.550;2023-04-09T04:59:35;4.10;;;3.60;;
77724;SDS011;66892;53.236;6.550;2023-04-09T05:02:01;4.40;;;3.80;;
77724;SDS011;66892;53.236;6.550;2023-04-09T05:04:28;4.35;;;3.85;;
77724;SDS011;66892;53.236;6.550;2023-04-09T05:06:55;4.60;;;4.03;;
77724;SDS011;66892;53.236;6.550;2023-04-09T05:09:21;4.40;;;3.70;;
77724;SDS011;66892;53.236;6.550;2023-04-09T05:11:48;4.60;;;4.07;;
77724;SDS011;66892;53.236;6.550;2023-04-09T05:14:14;4.88;;;4.18;;
77724;SDS011;66892;53.236;6.550;2023-04-09T05:16:40;4.63;;;4.00;;
77724;SDS011;66892;53.236;6.550;2023-04-09T05:19:06;4.70;;;4.20;;
77724;SDS011;66892;53.236;6.550;2023-04-09T05:21:32;5.13;;;4.43;;
77724;SDS011;66892;53.236;6.550;2023-04-09T05:23:58;4.60;;;4.00;;
77724;SDS011;66892;53.236;6.550;2023-04-09T05:26:25;4.22;;;3.83;;
77724;SDS011;66892;53.236;6.550;2023-04-09T05:28:52;4.53;;;4.00;;
77724;SDS011;66892;53.236;6.550;2023-04-09T05:31:18;4.47;;;3.70;;
77724;SDS011;66892;53.236;6.550;2023-04-09T05:33:44;4.68;;;3.88;;
77724;SDS011;66892;53.236;6.550;2023-04-09T05:36:13;5.05;;;4.43;;
77724;SDS011;66892;53.236;6.550;2023-04-09T05:38:40;4.68;;;4.13;;
77724;SDS011;66892;53.236;6.550;2023-04-09T05:41:07;4.57;;;4.07;;
77724;SDS011;66892;53.236;6.550;2023-04-09T05:43:33;4.70;;;4.15;;
77724;SDS011;66892;53.236;6.550;2023-04-09T05:46:00;4.97;;;4.40;;
77724;SDS011;66892;53.236;6.550;2023-04-09T05:48:26;4.70;;;4.05;;
77724;SDS011;66892;53.236;6.550;2023-04-09T05:50:52;4.80;;;4.30;;
77724;SDS011;66892;53.236;6.550;2023-04-09T05:53:18;4.50;;;3.70;;
77724;SDS011;66892;53.236;6.550;2023-04-09T05:55:44;4.93;;;4.43;;
77724;SDS011;66892;53.236;6.550;2023-04-09T05:58:11;4.93;;;4.38;;
77724;SDS011;66892;53.236;6.550;2023-04-09T06:00:37;4.93;;;4.10;;
77724;SDS011;66892;53.236;6.550;2023-04-09T06:03:05;4.95;;;4.45;;
77724;SDS011;66892;53.236;6.550;2023-04-09T06:05:31;5.75;;;4.55;;
77724;SDS011;66892;53.236;6.550;2023-04-09T06:07:57;4.57;;;3.88;;
77724;SDS011;66892;53.236;6.550;2023-04-09T06:10:23;4.20;;;3.63;;
77724;SDS011;66892;53.236;6.550;2023-04-09T06:12:49;4.05;;;3.45;;
77724;SDS011;66892;53.236;6.550;2023-04-09T06:15:15;4.40;;;3.47;;
77724;SDS011;66892;53.236;6.550;2023-04-09T06:17:41;4.57;;;3.63;;
77724;SDS011;66892;53.236;6.550;2023-04-09T06:20:09;4.22;;;3.45;;
77724;SDS011;66892;53.236;6.550;2023-04-09T06:22:35;4.28;;;3.47;;
77724;SDS011;66892;53.236;6.550;2023-04-09T06:25:02;4.30;;;3.58;;
77724;SDS011;66892;53.236;6.550;2023-04-09T06:27:28;3.80;;;3.00;;
77724;SDS011;66892;53.236;6.550;2023-04-09T06:29:54;3.97;;;2.97;;
77724;SDS011;66892;53.236;6.550;2023-04-09T06:32:20;4.72;;;3.20;;
77724;SDS011;66892;53.236;6.550;2023-04-09T06:34:46;3.90;;;3.10;;
77724;SDS011;66892;53.236;6.550;2023-04-09T06:37:14;4.00;;;3.03;;
77724;SDS011;66892;53.236;6.550;2023-04-09T06:39:40;3.70;;;2.83;;
77724;SDS011;66892;53.236;6.550;2023-04-09T06:42:06;3.85;;;2.88;;
77724;SDS011;66892;53.236;6.550;2023-04-09T06:44:32;4.45;;;3.42;;
77724;SDS011;66892;53.236;6.550;2023-04-09T06:46:59;4.20;;;3.35;;
77724;SDS011;66892;53.236;6.550;2023-04-09T06:49:25;4.03;;;3.22;;
77724;SDS011;66892;53.236;6.550;2023-04-09T06:51:51;4.53;;;3.40;;
77724;SDS011;66892;53.236;6.550;2023-04-09T06:54:22;4.30;;;3.60;;
77724;SDS011;66892;53.236;6.550;2023-04-09T06:56:48;4.22;;;3.28;;
77724;SDS011;66892;53.236;6.550;2023-04-09T06:59:13;4.30;;;3.60;;
77724;SDS011;66892;53.236;6.550;2023-04-09T07:01:41;4.13;;;3.35;;
77724;SDS011;66892;53.236;6.550;2023-04-09T07:04:07;4.30;;;3.55;;
77724;SDS011;66892;53.236;6.550;2023-04-09T07:06:33;4.00;;;3.13;;
77724;SDS011;66892;53.236;6.550;2023-04-09T07:08:59;4.30;;;3.55;;
77724;SDS011;66892;53.236;6.550;2023-04-09T07:11:27;4.10;;;3.58;;
77724;SDS011;66892;53.236;6.550;2023-04-09T07:13:53;4.25;;;3.85;;
77724;SDS011;66892;53.236;6.550;2023-04-09T07:16:21;4.13;;;3.45;;
77724;SDS011;66892;53.236;6.550;2023-04-09T07:18:47;3.95;;;3.38;;
77724;SDS011;66892;53.236;6.550;2023-04-09T07:21:14;4.22;;;3.60;;
77724;SDS011;66892;53.236;6.550;2023-04-09T07:23:40;4.13;;;3.60;;
77724;SDS011;66892;53.236;6.550;2023-04-09T07:26:06;4.00;;;3.33;;
77724;SDS011;66892;53.236;6.550;2023-04-09T07:31:01;4.20;;;3.45;;
77724;SDS011;66892;53.236;6.550;2023-04-09T07:33:29;4.28;;;3.40;;
77724;SDS011;66892;53.236;6.550;2023-04-09T07:35:55;4.38;;;3.70;;
77724;SDS011;66892;53.236;6.550;2023-04-09T07:38:22;4.03;;;3.22;;
77724;SDS011;66892;53.236;6.550;2023-04-09T07:40:48;4.10;;;3.10;;
77724;SDS011;66892;53.236;6.550;2023-04-09T07:43:14;4.55;;;3.70;;
77724;SDS011;66892;53.236;6.550;2023-04-09T07:45:42;4.45;;;3.70;;
77724;SDS011;66892;53.236;6.550;2023-04-09T07:48:09;5.05;;;3.80;;
77724;SDS011;66892;53.236;6.550;2023-04-09T07:50:35;4.15;;;3.75;;
77724;SDS011;66892;53.236;6.550;2023-04-09T07:53:01;4.68;;;3.70;;
77724;SDS011;66892;53.236;6.550;2023-04-09T07:55:27;4.60;;;3.60;;
77724;SDS011;66892;53.236;6.550;2023-04-09T07:57:53;4.72;;;3.60;;
77724;SDS011;66892;53.236;6.550;2023-04-09T08:00:19;4.30;;;3.80;;
77724;SDS011;66892;53.236;6.550;2023-04-09T08:02:46;4.10;;;3.50;;
77724;SDS011;66892;53.236;6.550;2023-04-09T08:05:12;4.22;;;3.60;;
77724;SDS011;66892;53.236;6.550;2023-04-09T08:07:38;4.47;;;3.50;;
77724;SDS011;66892;53.236;6.550;2023-04-09T08:10:05;4.13;;;3.33;;
77724;SDS011;66892;53.236;6.550;2023-04-09T08:12:32;4.40;;;3.67;;
77724;SDS011;66892;53.236;6.550;2023-04-09T08:14:58;4.25;;;3.50;;
77724;SDS011;66892;53.236;6.550;2023-04-09T08:17:24;4.00;;;3.55;;
77724;SDS011;66892;53.236;6.550;2023-04-09T08:19:51;4.35;;;3.70;;
77724;SDS011;66892;53.236;6.550;2023-04-09T08:22:17;4.47;;;3.55;;
77724;SDS011;66892;53.236;6.550;2023-04-09T08:24:43;4.30;;;3.50;;
77724;SDS011;66892;53.236;6.550;2023-04-09T08:27:15;4.07;;;3.50;;
77724;SDS011;66892;53.236;6.550;2023-04-09T08:29:41;4.25;;;3.67;;
77724;SDS011;66892;53.236;6.550;2023-04-09T08:32:07;4.03;;;3.38;;
77724;SDS011;66892;53.236;6.550;2023-04-09T08:34:33;4.05;;;3.25;;
77724;SDS011;66892;53.236;6.550;2023-04-09T08:37:00;3.90;;;3.13;;
77724;SDS011;66892;53.236;6.550;2023-04-09T08:39:27;4.10;;;3.50;;
77724;SDS011;66892;53.236;6.550;2023-04-09T08:41:53;3.92;;;3.15;;
77724;SDS011;66892;53.236;6.550;2023-04-09T08:44:26;4.30;;;3.20;;
77724;SDS011;66892;53.236;6.550;2023-04-09T08:46:52;4.53;;;3.42;;
77724;SDS011;66892;53.236;6.550;2023-04-09T08:49:19;4.05;;;3.30;;
77724;SDS011;66892;53.236;6.550;2023-04-09T08:51:46;4.00;;;3.50;;
77724;SDS011;66892;53.236;6.550;2023-04-09T08:54:14;4.30;;;3.42;;
77724;SDS011;66892;53.236;6.550;2023-04-09T08:59:09;4.32;;;3.33;;
77724;SDS011;66892;53.236;6.550;2023-04-09T09:01:35;4.45;;;3.20;;
77724;SDS011;66892;53.236;6.550;2023-04-09T09:04:01;4.18;;;3.35;;
77724;SDS011;66892;53.236;6.550;2023-04-09T09:06:29;3.90;;;3.20;;
77724;SDS011;66892;53.236;6.550;2023-04-09T09:09:04;4.20;;;3.47;;
77724;SDS011;66892;53.236;6.550;2023-04-09T09:11:32;3.90;;;3.00;;
77724;SDS011;66892;53.236;6.550;2023-04-09T09:13:59;3.88;;;2.97;;
77724;SDS011;66892;53.236;6.550;2023-04-09T09:16:26;4.03;;;3.08;;
77724;SDS011;66892;53.236;6.550;2023-04-09T09:18:53;3.78;;;2.97;;
77724;SDS011;66892;53.236;6.550;2023-04-09T09:21:20;3.90;;;3.03;;
77724;SDS011;66892;53.236;6.550;2023-04-09T09:23:46;3.78;;;2.90;;
77724;SDS011;66892;53.236;6.550;2023-04-09T09:26:14;3.80;;;2.80;;
77724;SDS011;66892;53.236;6.550;2023-04-09T09:28:44;3.90;;;3.00;;
77724;SDS011;66892;53.236;6.550;2023-04-09T09:31:11;3.78;;;2.88;;
77724;SDS011;66892;53.236;6.550;2023-04-09T09:33:37;4.00;;;3.13;;
77724;SDS011;66892;53.236;6.550;2023-04-09T09:36:04;4.40;;;3.33;;
77724;SDS011;66892;53.236;6.550;2023-04-09T09:38:30;3.85;;;2.90;;
77724;SDS011;66892;53.236;6.550;2023-04-09T09:40:56;3.95;;;3.05;;
77724;SDS011;66892;53.236;6.550;2023-04-09T09:43:23;4.10;;;3.38;;
77724;SDS011;66892;53.236;6.550;2023-04-09T09:45:50;4.05;;;3.50;;
77724;SDS011;66892;53.236;6.550;2023-04-09T09:48:18;3.92;;;3.13;;
77724;SDS011;66892;53.236;6.550;2023-04-09T09:50:44;3.92;;;3.13;;
77724;SDS011;66892;53.236;6.550;2023-04-09T09:53:13;4.28;;;3.10;;
77724;SDS011;66892;53.236;6.550;2023-04-09T09:55:48;4.03;;;3.15;;
77724;SDS011;66892;53.236;6.550;2023-04-09T09:58:18;4.25;;;3.28;;
77724;SDS011;66892;53.236;6.550;2023-04-09T10:00:50;4.00;;;3.35;;
77724;SDS011;66892;53.236;6.550;2023-04-09T10:03:19;4.10;;;3.13;;
77724;SDS011;66892;53.236;6.550;2023-04-09T10:08:13;4.05;;;3.15;;
77724;SDS011;66892;53.236;6.550;2023-04-09T10:10:40;4.35;;;3.38;;
77724;SDS011;66892;53.236;6.550;2023-04-09T10:13:08;4.15;;;3.75;;
77724;SDS011;66892;53.236;6.550;2023-04-09T10:15:36;3.90;;;3.25;;
77724;SDS011;66892;53.236;6.550;2023-04-09T10:18:04;3.92;;;3.15;;
77724;SDS011;66892;53.236;6.550;2023-04-09T10:20:31;3.80;;;2.83;;
77724;SDS011;66892;53.236;6.550;2023-04-09T10:23:08;3.70;;;2.95;;
77724;SDS011;66892;53.236;6.550;2023-04-09T10:25:39;3.65;;;3.05;;
77724;SDS011;66892;53.236;6.550;2023-04-09T10:28:13;3.50;;;2.60;;
77724;SDS011;66892;53.236;6.550;2023-04-09T10:30:41;3.92;;;3.20;;
77724;SDS011;66892;53.236;6.550;2023-04-09T10:33:10;3.70;;;2.90;;
77724;SDS011;66892;53.236;6.550;2023-04-09T10:35:37;3.60;;;2.83;;
77724;SDS011;66892;53.236;6.550;2023-04-09T10:38:05;4.80;;;3.40;;
77724;SDS011;66892;53.236;6.550;2023-04-09T10:40:33;3.83;;;2.72;;
77724;SDS011;66892;53.236;6.550;2023-04-09T10:42:59;3.70;;;2.63;;
77724;SDS011;66892;53.236;6.550;2023-04-09T10:45:37;3.63;;;2.92;;
77724;SDS011;66892;53.236;6.550;2023-04-09T10:48:05;3.60;;;2.85;;
77724;SDS011;66892;53.236;6.550;2023-04-09T10:50:37;3.88;;;3.20;;
77724;SDS011;66892;53.236;6.550;2023-04-09T10:53:04;4.28;;;3.28;;
77724;SDS011;66892;53.236;6.550;2023-04-09T10:55:34;3.85;;;2.90;;
77724;SDS011;66892;53.236;6.550;2023-04-09T10:58:02;3.60;;;2.83;;
77724;SDS011;66892;53.236;6.550;2023-04-09T11:00:29;3.80;;;3.15;;
77724;SDS011;66892;53.236;6.550;2023-04-09T11:05:47;3.78;;;3.15;;
77724;SDS011;66892;53.236;6.550;2023-04-09T11:08:17;3.80;;;3.00;;
77724;SDS011;66892;53.236;6.550;2023-04-09T11:10:43;4.00;;;3.15;;
77724;SDS011;66892;53.236;6.550;2023-04-09T11:13:12;3.80;;;3.30;;
77724;SDS011;66892;53.236;6.550;2023-04-09T11:15:39;3.80;;;3.10;;
77724;SDS011;66892;53.236;6.550;2023-04-09T11:18:06;3.60;;;3.05;;
77724;SDS011;66892;53.236;6.550;2023-04-09T11:20:34;4.40;;;3.53;;
77724;SDS011;66892;53.236;6.550;2023-04-09T11:23:02;3.72;;;2.85;;
77724;SDS011;66892;53.236;6.550;2023-04-09T11:25:28;3.80;;;3.38;;
77724;SDS011;66892;53.236;6.550;2023-04-09T11:27:56;3.80;;;2.97;;
77724;SDS011;66892;53.236;6.550;2023-04-09T11:30:23;3.72;;;2.72;;
77724;SDS011;66892;53.236;6.550;2023-04-09T11:32:49;3.90;;;3.00;;
77724;SDS011;66892;53.236;6.550;2023-04-09T11:35:16;3.72;;;3.03;;
77724;SDS011;66892;53.236;6.550;2023-04-09T11:37:44;3.67;;;2.90;;
77724;SDS011;66892;53.236;6.550;2023-04-09T11:40:16;3.70;;;2.80;;
77724;SDS011;66892;53.236;6.550;2023-04-09T11:42:42;3.85;;;3.03;;
77724;SDS011;66892;53.236;6.550;2023-04-09T11:45:09;3.85;;;2.97;;
77724;SDS011;66892;53.236;6.550;2023-04-09T11:47:37;3.55;;;2.95;;
77724;SDS011;66892;53.236;6.550;2023-04-09T11:50:04;3.60;;;2.85;;
77724;SDS011;66892;53.236;6.550;2023-04-09T11:52:31;3.50;;;3.00;;
77724;SDS011;66892;53.236;6.550;2023-04-09T11:55:00;3.70;;;2.78;;
77724;SDS011;66892;53.236;6.550;2023-04-09T11:57:35;3.13;;;2.33;;
77724;SDS011;66892;53.236;6.550;2023-04-09T12:00:04;3.53;;;2.63;;
77724;SDS011;66892;53.236;6.550;2023-04-09T12:02:33;3.40;;;2.42;;
77724;SDS011;66892;53.236;6.550;2023-04-09T12:05:01;3.42;;;2.53;;
77724;SDS011;66892;53.236;6.550;2023-04-09T12:07:30;3.55;;;2.90;;
77724;SDS011;66892;53.236;6.550;2023-04-09T12:10:01;3.50;;;2.80;;
77724;SDS011;66892;53.236;6.550;2023-04-09T12:12:29;3.38;;;2.60;;
77724;SDS011;66892;53.236;6.550;2023-04-09T12:14:57;3.38;;;2.55;;
77724;SDS011;66892;53.236;6.550;2023-04-09T12:17:23;3.50;;;2.42;;
77724;SDS011;66892;53.236;6.550;2023-04-09T12:19:50;3.10;;;2.33;;
77724;SDS011;66892;53.236;6.550;2023-04-09T12:22:16;3.42;;;2.70;;
77724;SDS011;66892;53.236;6.550;2023-04-09T12:24:42;3.30;;;2.30;;
77724;SDS011;66892;53.236;6.550;2023-04-09T12:27:08;3.55;;;2.78;;
77724;SDS011;66892;53.236;6.550;2023-04-09T12:29:35;3.30;;;2.33;;
77724;SDS011;66892;53.236;6.550;2023-04-09T12:32:02;3.17;;;2.58;;
77724;SDS011;66892;53.236;6.550;2023-04-09T12:34:29;3.20;;;2.15;;
77724;SDS011;66892;53.236;6.550;2023-04-09T12:36:55;3.80;;;2.42;;
77724;SDS011;66892;53.236;6.550;2023-04-09T12:39:21;3.50;;;2.65;;
77724;SDS011;66892;53.236;6.550;2023-04-09T12:41:47;3.83;;;2.88;;
77724;SDS011;66892;53.236;6.550;2023-04-09T12:44:13;3.38;;;2.33;;
77724;SDS011;66892;53.236;6.550;2023-04-09T12:46:39;3.15;;;2.17;;
77724;SDS011;66892;53.236;6.550;2023-04-09T12:49:07;3.25;;;2.03;;
77724;SDS011;66892;53.236;6.550;2023-04-09T12:51:33;3.13;;;2.35;;
77724;SDS011;66892;53.236;6.550;2023-04-09T12:53:59;3.05;;;2.15;;
77724;SDS011;66892;53.236;6.550;2023-04-09T12:56:28;3.20;;;2.13;;
77724;SDS011;66892;53.236;6.550;2023-04-09T12:58:54;3.20;;;2.35;;
77724;SDS011;66892;53.236;6.550;2023-04-09T13:01:20;3.20;;;2.40;;
77724;SDS011;66892;53.236;6.550;2023-04-09T13:03:46;3.10;;;2.03;;
77724;SDS011;66892;53.236;6.550;2023-04-09T13:06:14;3.00;;;2.22;;
77724;SDS011;66892;53.236;6.550;2023-04-09T13:08:40;3.05;;;2.00;;
77724;SDS011;66892;53.236;6.550;2023-04-09T13:11:06;3.10;;;2.10;;
77724;SDS011;66892;53.236;6.550;2023-04-09T13:13:32;3.10;;;2.13;;
77724;SDS011;66892;53.236;6.550;2023-04-09T13:15:58;3.28;;;2.53;;
77724;SDS011;66892;53.236;6.550;2023-04-09T13:18:24;3.05;;;2.25;;
77724;SDS011;66892;53.236;6.550;2023-04-09T13:20:50;3.08;;;2.10;;
77724;SDS011;66892;53.236;6.550;2023-04-09T13:23:17;3.20;;;2.28;;
77724;SDS011;66892;53.236;6.550;2023-04-09T13:25:44;3.13;;;2.30;;
77724;SDS011;66892;53.236;6.550;2023-04-09T13:28:10;3.00;;;2.00;;
77724;SDS011;66892;53.236;6.550;2023-04-09T13:30:36;3.30;;;2.45;;
77724;SDS011;66892;53.236;6.550;2023-04-09T13:33:02;3.40;;;2.75;;
77724;SDS011;66892;53.236;6.550;2023-04-09T13:35:28;3.25;;;2.22;;
77724;SDS011;66892;53.236;6.550;2023-04-09T13:37:55;3.15;;;2.60;;
77724;SDS011;66892;53.236;6.550;2023-04-09T13:40:22;3.22;;;2.47;;
77724;SDS011;66892;53.236;6.550;2023-04-09T13:42:48;3.10;;;2.20;;
77724;SDS011;66892;53.236;6.550;2023-04-09T13:45:14;3.30;;;2.33;;
77724;SDS011;66892;53.236;6.550;2023-04-09T13:47:41;3.20;;;2.20;;
77724;SDS011;66892;53.236;6.550;2023-04-09T13:50:08;3.50;;;2.70;;
77724;SDS011;66892;53.236;6.550;2023-04-09T13:52:35;3.38;;;2.80;;
77724;SDS011;66892;53.236;6.550;2023-04-09T13:55:01;3.25;;;2.55;;
77724;SDS011;66892;53.236;6.550;2023-04-09T13:57:29;3.30;;;2.45;;
77724;SDS011;66892;53.236;6.550;2023-04-09T13:59:55;3.40;;;2.47;;
77724;SDS011;66892;53.236;6.550;2023-04-09T14:02:21;3.33;;;2.45;;
77724;SDS011;66892;53.236;6.550;2023-04-09T14:04:48;3.25;;;2.50;;
77724;SDS011;66892;53.236;6.550;2023-04-09T14:07:14;3.20;;;2.40;;
77724;SDS011;66892;53.236;6.550;2023-04-09T14:09:40;3.60;;;2.53;;
77724;SDS011;66892;53.236;6.550;2023-04-09T14:12:06;3.50;;;2.42;;
77724;SDS011;66892;53.236;6.550;2023-04-09T14:14:33;3.35;;;2.40;;
77724;SDS011;66892;53.236;6.550;2023-04-09T14:16:59;3.13;;;2.38;;
77724;SDS011;66892;53.236;6.550;2023-04-09T14:19:25;3.28;;;2.33;;
77724;SDS011;66892;53.236;6.550;2023-04-09T14:21:51;3.50;;;3.03;;
77724;SDS011;66892;53.236;6.550;2023-04-09T14:24:18;3.50;;;2.75;;
77724;SDS011;66892;53.236;6.550;2023-04-09T14:26:47;3.30;;;2.40;;
77724;SDS011;66892;53.236;6.550;2023-04-09T14:29:13;3.05;;;2.08;;
77724;SDS011;66892;53.236;6.550;2023-04-09T14:31:41;3.20;;;2.40;;
77724;SDS011;66892;53.236;6.550;2023-04-09T14:34:07;3.30;;;2.40;;
77724;SDS011;66892;53.236;6.550;2023-04-09T14:36:33;3.30;;;2.45;;
77724;SDS011;66892;53.236;6.550;2023-04-09T14:38:59;3.28;;;2.40;;
77724;SDS011;66892;53.236;6.550;2023-04-09T14:41:25;3.30;;;2.42;;
77724;SDS011;66892;53.236;6.550;2023-04-09T14:43:51;3.22;;;2.22;;
77724;SDS011;66892;53.236;6.550;2023-04-09T14:46:17;3.90;;;2.25;;
77724;SDS011;66892;53.236;6.550;2023-04-09T14:48:46;3.00;;;1.92;;
77724;SDS011;66892;53.236;6.550;2023-04-09T14:51:12;3.33;;;2.40;;
77724;SDS011;66892;53.236;6.550;2023-04-09T14:53:38;3.13;;;2.20;;
77724;SDS011;66892;53.236;6.550;2023-04-09T14:56:04;3.35;;;2.15;;